Târgu Mureş, România

01:24 AM EEST on septembrie 24, 2014 (GMT +0300)
Comuna Craciunesti | Change Station
CLOSE
Current Station
Staţie meteo personală
Location: Mureș, MUREș
Elevation: 1033 ft
Nearby Weather Stations

Elev 1033 ft 46.46 °N, 24.58 °E | Updated 2 minutes ago

Clear
Cer senin
50.4 °F
Feels Like 50.4 °F
N
9.0
Vânt variabil Vânt from VSV
Gusts 13.0 mph

astăzi
High -- | Low -- °F
--% Chance of Precip.
Ieri
High -- | Low -- °F
Precip. -- inch
7:10 AM 7:16 PM
Semilună în descreştere, 0% visible
Presiunea 29.98 inch
Vizibilitatea -9999.0 mile
Nori
Punctul de rouă 45 °F
Umiditatea 83%
Precipitaţii 0.00 inch
Adâncimea zăpezii Not available.
UV 0.0 out of 12
Pollen Not available.
Calitatea aerului Not available.
Flu Activity Not available.
METAR LRTM 232200Z 27010KT CAVOK 11/07 Q1015

More Conditions Fewer Conditions

Presiunea 29.98 inch
Vizibilitatea -9999.0 mile
Nori
Punctul de rouă 45 °F
Umiditatea 83%
Precipitaţii 0.00 inch
Adâncimea zăpezii Not available.
UV 0.0 out of 12
Pollen Not available.
Calitatea aerului Not available.
Flu Activity Not available.
METAR LRTM 232200Z 27010KT CAVOK 11/07 Q1015

More Conditions Fewer Conditions

10-Day Weather Forecast

Almanac

Astronomie

Sep. 24, 2014 Răsărit Apus
Timpul Actual 7:10 AM EEST 7:16 PM EEST
Crepusculul Civil 6:40 AM EEST 7:46 PM EEST
Crepusculul nautic 6:05 AM EEST 8:21 PM EEST
Răsărit Astronomic 5:29 AM EEST 8:57 PM EEST
Luna 7:15 AM EEST (9/24) 7:13 PM EEST (9/24)
Durata zilei lumină 13h 05m
Lungimea zilei
12h 05m
Tomorrow will be 3m 16s shorter.
Semilună în descreştere, 0% of the Moon is Illuminated
Sep 23
Semilună în descreştere
Sep 24
New
Oct 1
Primul pătrar
Oct 8
Lună plină
Oct 15
Ultimul pătrar

Yesterday's Extremes

Country Highs Country Lows

Community

WunderPhotos

Upload Photos

1,755,801 photos uploaded!

WunderBlogs® & News

Nearby

Calitatea aerului

Not available.

Adâncimea zapezii

Not available.

Earthquake Activity

Oraş Distance Mag. Time & Date
No recent earthquake activity has been reported nearby.
Minimum magnitude displayed is 2.5.

Coastal Water Temperatures

Locul Temperatura
No Stations Reporting

Nearby Weather Stations